Time;durP1;ratioP1;P1;durP2;ratioP2;P2;SDS_P1;SDS_P2;PMS_P1;PMS_P2;Temp;Humidity;BMP_temperature;BMP_pressure;BME280_temperature;BME280_humidity;BME280_pressure;Samples;Min_cycle;Max_cycle;Signal;HPM_P1;HPM_P2
2023/08/14 00:01:30;;;;;;;3.17;2.08;;;;;;;;;;4987930;28;20502;-65
2023/08/14 00:03:56;;;;;;;5.10;2.08;;;;;;;;;;4987484;28;20042;-65
2023/08/14 00:06:22;;;;;;;4.00;2.03;;;;;;;;;;4990314;28;20316;-64
2023/08/14 00:08:49;;;;;;;3.10;1.98;;;;;;;;;;4990157;28;20038;-64
2023/08/14 00:11:15;;;;;;;4.28;1.98;;;;;;;;;;4990512;28;20132;-64
2023/08/14 00:13:54;;;;;;;3.45;2.10;;;;;;;;;;4988354;28;20485;-65
2023/08/14 00:16:20;;;;;;;4.53;2.22;;;;;;;;;;4989665;28;20519;-65
2023/08/14 00:18:47;;;;;;;3.10;2.20;;;;;;;;;;4990449;28;20045;-64
2023/08/14 00:21:13;;;;;;;4.03;1.98;;;;;;;;;;4989993;28;20408;-64
2023/08/14 00:23:39;;;;;;;5.28;2.25;;;;;;;;;;4992096;28;20128;-64
2023/08/14 00:26:05;;;;;;;2.95;1.90;;;;;;;;;;4992705;28;20076;-65
2023/08/14 00:28:32;;;;;;;3.67;2.47;;;;;;;;;;4988249;28;20158;-64
2023/08/14 00:30:58;;;;;;;3.10;1.88;;;;;;;;;;4986232;28;20112;-63
2023/08/14 00:33:24;;;;;;;4.35;2.22;;;;;;;;;;4991919;28;20152;-65
2023/08/14 00:35:50;;;;;;;4.82;2.25;;;;;;;;;;4991152;28;20112;-65
2023/08/14 00:38:16;;;;;;;4.20;2.72;;;;;;;;;;4990901;28;20101;-65
2023/08/14 00:40:43;;;;;;;4.72;2.38;;;;;;;;;;4990191;28;20056;-64
2023/08/14 00:43:09;;;;;;;3.72;2.45;;;;;;;;;;4990400;28;20133;-64
2023/08/14 00:45:35;;;;;;;5.57;2.05;;;;;;;;;;4989776;28;20046;-64
2023/08/14 00:48:01;;;;;;;2.95;2.35;;;;;;;;;;4988552;28;20043;-64
2023/08/14 00:50:27;;;;;;;4.35;2.17;;;;;;;;;;4989890;28;20046;-65
2023/08/14 00:52:55;;;;;;;5.97;2.92;;;;;;;;;;4990243;28;20035;-65
2023/08/14 00:55:26;;;;;;;3.70;1.83;;;;;;;;;;4979922;28;20505;-65
2023/08/14 00:57:53;;;;;;;5.00;2.42;;;;;;;;;;4983584;28;20066;-68
2023/08/14 01:00:23;;;;;;;3.78;1.80;;;;;;;;;;4982882;28;20485;-65
2023/08/14 01:02:49;;;;;;;4.63;1.85;;;;;;;;;;4979827;28;20050;-64
2023/08/14 01:05:17;;;;;;;3.30;1.63;;;;;;;;;;4988898;28;20042;-65
2023/08/14 01:07:44;;;;;;;3.08;2.25;;;;;;;;;;4988839;28;20050;-64
2023/08/14 01:10:10;;;;;;;3.22;2.40;;;;;;;;;;4987212;28;20281;-64
2023/08/14 01:12:56;;;;;;;5.05;2.38;;;;;;;;;;4981896;28;20540;-65
2023/08/14 01:15:37;;;;;;;3.85;2.28;;;;;;;;;;4985583;28;20129;-65
2023/08/14 01:18:03;;;;;;;2.60;1.60;;;;;;;;;;4986859;28;20038;-64
2023/08/14 01:20:31;;;;;;;5.07;2.35;;;;;;;;;;4985775;28;20398;-65
2023/08/14 01:23:14;;;;;;;4.45;2.00;;;;;;;;;;4960798;28;20062;-65
2023/08/14 01:25:46;;;;;;;4.30;2.25;;;;;;;;;;4981836;28;20399;-64
2023/08/14 01:28:13;;;;;;;2.88;1.83;;;;;;;;;;4988157;28;20119;-64
2023/08/14 01:30:40;;;;;;;2.58;1.75;;;;;;;;;;4985029;28;20517;-65
2023/08/14 01:33:06;;;;;;;2.97;1.80;;;;;;;;;;4988247;28;20454;-65
2023/08/14 01:35:52;;;;;;;3.72;1.98;;;;;;;;;;4989219;28;20034;-65
2023/08/14 01:38:40;;;;;;;3.78;2.65;;;;;;;;;;4988570;28;20549;-65
2023/08/14 01:41:07;;;;;;;3.47;2.35;;;;;;;;;;4981834;28;20038;-63
2023/08/14 01:43:43;;;;;;;2.55;1.67;;;;;;;;;;4988109;28;20126;-65
2023/08/14 01:46:11;;;;;;;4.80;2.28;;;;;;;;;;4984417;28;20457;-64
2023/08/14 01:48:37;;;;;;;5.63;2.38;;;;;;;;;;4992471;28;20042;-64
2023/08/14 01:51:04;;;;;;;4.30;1.80;;;;;;;;;;4971774;28;20038;-65
2023/08/14 01:53:34;;;;;;;4.35;1.85;;;20.00;99.30;;;;;;4988965;28;20154;-65
2023/08/14 01:55:59;;;;;;;3.30;2.05;;;18.40;99.90;;;;;;4988625;28;20109;-65
2023/08/14 01:58:25;;;;;;;3.30;2.00;;;18.30;99.90;;;;;;4983643;28;20565;-65
2023/08/14 02:00:51;;;;;;;6.07;2.58;;;18.20;99.90;;;;;;4972235;28;20043;-65
2023/08/14 02:03:17;;;;;;;2.88;1.85;;;;;;;;;;4990916;28;20502;-64
2023/08/14 02:05:43;;;;;;;5.13;2.08;;;;;;;;;;4991446;28;20046;-64
2023/08/14 02:08:09;;;;;;;4.22;1.75;;;;;;;;;;4989574;28;20120;-64
2023/08/14 02:10:35;;;;;;;4.32;2.28;;;;;;;;;;4988281;28;20088;-65
2023/08/14 02:13:01;;;;;;;3.15;2.20;;;;;;;;;;4962029;28;20046;-65
2023/08/14 02:15:28;;;;;;;3.88;1.70;;;;;;;;;;4988490;28;20089;-65
2023/08/14 02:17:54;;;;;;;3.28;2.10;;;;;;;;;;4987896;28;20046;-65
2023/08/14 02:20:20;;;;;;;3.42;2.50;;;;;;;;;;4987834;28;20057;-65
2023/08/14 02:22:47;;;;;;;5.97;2.45;;;;;;;;;;4983080;28;20667;-65
2023/08/14 02:25:13;;;;;;;4.65;2.17;;;;;;;;;;4984470;28;20106;-64
2023/08/14 02:27:39;;;;;;;3.63;2.05;;;;;;;;;;4987603;28;20061;-65
2023/08/14 02:30:05;;;;;;;3.40;2.15;;;;;;;;;;4986029;28;20118;-65
2023/08/14 02:32:31;;;;;;;4.45;2.78;;;;;;;;;;4989466;28;20125;-65
2023/08/14 02:34:59;;;;;;;3.83;2.65;;;;;;;;;;4972039;28;20524;-64
2023/08/14 02:37:25;;;;;;;3.38;2.10;;;;;;;;;;4989689;28;20038;-65
2023/08/14 02:39:51;;;;;;;3.17;2.28;;;;;;;;;;4985958;28;20093;-66
2023/08/14 02:42:18;;;;;;;3.65;2.50;;;;;;;;;;4988523;28;20494;-65
2023/08/14 02:44:44;;;;;;;4.32;2.75;;;;;;;;;;4986185;28;20121;-64
2023/08/14 02:47:11;;;;;;;3.17;2.40;;;;;;;;;;4989592;28;20065;-64
2023/08/14 02:49:37;;;;;;;3.17;2.15;;;;;;;;;;4985706;28;20034;-65
2023/08/14 02:52:04;;;;;;;5.72;2.30;;;;;;;;;;4988440;28;20045;-65
2023/08/14 02:54:30;;;;;;;4.10;2.30;;;;;;;;;;4981715;28;20417;-64
2023/08/14 02:56:56;;;;;;;3.05;2.28;;;;;;;;;;4984763;28;20042;-64
2023/08/14 02:59:22;;;;;;;3.90;2.60;;;;;;;;;;4972541;28;20042;-65
2023/08/14 03:01:48;;;;;;;5.32;2.80;;;;;;;;;;4986636;28;20405;-65
2023/08/14 03:04:15;;;;;;;3.75;2.58;;;;;;;;;;4987518;28;20039;-65
2023/08/14 03:06:42;;;;;;;3.95;2.22;;;;;;;;;;4986437;28;20501;-65
2023/08/14 03:09:08;;;;;;;4.85;2.10;;;;;;;;;;4986264;28;20038;-65
2023/08/14 03:11:34;;;;;;;3.78;2.58;;;;;;;;;;4986626;28;20133;-65
2023/08/14 03:14:00;;;;;;;5.13;2.30;;;;;;;;;;4986351;28;20243;-65
2023/08/14 03:16:26;;;;;;;3.03;2.40;;;;;;;;;;4986636;28;20085;-65
2023/08/14 03:18:52;;;;;;;4.63;2.63;;;;;;;;;;4987196;28;20121;-64
2023/08/14 03:21:18;;;;;;;5.07;2.92;;;;;;;;;;4985151;28;20038;-65
2023/08/14 03:23:47;;;;;;;3.30;2.42;;;;;;;;;;4987160;28;20507;-64
2023/08/14 03:26:14;;;;;;;4.88;2.92;;;;;;;;;;4983422;28;20038;-65
2023/08/14 03:28:40;;;;;;;7.43;2.75;;;;;;;;;;4985291;28;20063;-65
2023/08/14 03:31:06;;;;;;;5.18;2.13;;;;;;;;;;4985104;28;20086;-64
2023/08/14 03:33:32;;;;;;;5.80;2.38;;;;;;;;;;4986493;28;20030;-65
2023/08/14 03:35:58;;;;;;;7.07;2.78;;;;;;;;;;4987472;28;20047;-64
2023/08/14 03:38:24;;;;;;;4.30;2.13;;;;;;;;;;4987047;28;20038;-64
2023/08/14 03:40:50;;;;;;;3.47;2.45;;;;;;;;;;4985020;28;20042;-64
2023/08/14 03:43:16;;;;;;;3.72;2.60;;;;;;;;;;4983886;28;20042;-65
2023/08/14 03:45:42;;;;;;;4.70;2.90;;;;;;;;;;4969371;28;20077;-65
2023/08/14 03:48:09;;;;;;;4.65;2.78;;;;;;;;;;4985036;28;20094;-64
2023/08/14 03:50:35;;;;;;;4.55;2.05;;;;;;;;;;4985736;28;20039;-64
2023/08/14 03:53:01;;;;;;;5.25;2.22;;;;;;;;;;4986448;28;20089;-64
2023/08/14 03:55:27;;;;;;;2.63;2.10;;;;;;;;;;4968302;28;20521;-65
2023/08/14 03:57:56;;;;;;;5.03;3.17;;;;;;;;;;4969690;28;20034;-64
2023/08/14 04:00:22;;;;;;;7.55;2.42;;;;;;;;;;4970722;28;20489;-65
2023/08/14 04:02:48;;;;;;;4.20;1.92;;;;;;;;;;4988311;28;20046;-65
2023/08/14 04:05:14;;;;;;;3.33;2.22;;;;;;;;;;4990625;28;20096;-65
2023/08/14 04:07:41;;;;;;;3.75;2.15;;;;;;;;;;4987291;28;20469;-65
2023/08/14 04:10:07;;;;;;;3.95;2.95;;;;;;;;;;4996776;28;20049;-64
2023/08/14 04:12:33;;;;;;;5.78;2.47;;;;;;;;;;4995580;28;20191;-65
2023/08/14 04:15:15;;;;;;;4.80;2.60;;;;;;;;;;4989341;28;20038;-65
2023/08/14 04:17:41;;;;;;;5.32;2.28;;;;;;;;;;4978505;28;20133;-64
2023/08/14 04:20:09;;;;;;;3.35;2.30;;;;;;;;;;4990787;28;20161;-65
2023/08/14 04:22:35;;;;;;;4.05;2.67;;;;;;;;;;4987674;28;20042;-64
2023/08/14 04:25:01;;;;;;;4.68;3.10;;;;;;;;;;4988908;28;20050;-64
2023/08/14 04:27:28;;;;;;;5.38;2.78;;;;;;;;;;4989283;28;20145;-64
2023/08/14 04:29:54;;;;;;;5.75;2.72;;;;;;;;;;4992807;28;20508;-64
2023/08/14 04:32:20;;;;;;;6.68;3.22;;;;;;;;;;4968891;28;20134;-64
2023/08/14 04:34:46;;;;;;;5.80;3.08;;;;;;;;;;4995545;28;20045;-65
2023/08/14 04:37:12;;;;;;;3.40;2.47;;;;;;;;;;4975736;28;20034;-65
2023/08/14 04:39:38;;;;;;;5.60;3.47;;;;;;;;;;4988547;28;20414;-65
2023/08/14 04:42:04;;;;;;;7.63;3.63;;;;;;;;;;4988495;28;20098;-65
2023/08/14 04:44:30;;;;;;;4.88;2.97;;;;;;;;;;4985977;28;20497;-65
2023/08/14 04:46:56;;;;;;;4.95;3.53;;;;;;;;;;4967106;28;20050;-64
2023/08/14 04:49:23;;;;;;;6.70;3.15;;;;;;;;;;4972326;28;20082;-64
2023/08/14 04:51:49;;;;;;;3.92;3.30;;;;;;;;;;4972186;28;20366;-65
2023/08/14 04:54:14;;;;;;;5.45;3.13;;;18.20;99.90;;;;;;4990895;28;20521;-65
2023/08/14 04:56:40;;;;;;;6.65;3.60;;;17.70;99.90;;;;;;4973292;28;20169;-65
2023/08/14 04:59:06;;;;;;;6.65;3.72;;;17.70;99.90;;;;;;4993072;28;20528;-64
2023/08/14 05:01:32;;;;;;;4.80;3.60;;;17.60;99.90;;;;;;4985886;28;20173;-64
2023/08/14 05:03:58;;;;;;;3.95;3.15;;;17.70;99.90;;;;;;4975668;28;20149;-65
2023/08/14 05:06:23;;;;;;;6.38;4.18;;;17.60;99.90;;;;;;4988248;28;20046;-63
2023/08/14 05:08:49;;;;;;;4.38;3.45;;;17.60;99.90;;;;;;4989610;28;20038;-65
2023/08/14 05:11:15;;;;;;;5.80;3.47;;;17.60;99.90;;;;;;4971623;28;20053;-65
2023/08/14 05:13:44;;;;;;;4.85;3.30;;;17.60;99.90;;;;;;4985356;28;20035;-64
2023/08/14 05:16:10;;;;;;;6.65;4.25;;;17.60;99.90;;;;;;4987833;28;20086;-63
2023/08/14 05:18:36;;;;;;;6.63;4.18;;;17.60;99.90;;;;;;4987245;28;20124;-64
2023/08/14 05:21:07;;;;;;;8.90;3.90;;;17.60;99.90;;;;;;4982268;28;20064;-64
2023/08/14 05:23:33;;;;;;;11.07;3.90;;;17.60;99.90;;;;;;4989574;28;20435;-64
2023/08/14 05:25:59;;;;;;;8.85;4.65;;;17.60;99.90;;;;;;4982752;28;20038;-63
2023/08/14 05:28:25;;;;;;;7.07;4.35;;;;;;;;;;4983707;28;20050;-63
2023/08/14 05:30:51;;;;;;;5.05;3.20;;;;;;;;;;4986671;28;20065;-64
2023/08/14 05:33:18;;;;;;;7.70;4.43;;;;;;;;;;4991452;28;20667;-63
2023/08/14 05:35:44;;;;;;;5.97;3.80;;;;;;;;;;4967048;28;20494;-64
2023/08/14 05:38:10;;;;;;;6.40;3.92;;;;;;;;;;4993182;28;20046;-65
2023/08/14 05:40:36;;;;;;;7.78;3.95;;;;;;;;;;4989070;28;20046;-65
2023/08/14 05:43:03;;;;;;;5.82;3.80;;;;;;;;;;4985975;28;20454;-65
2023/08/14 05:45:30;;;;;;;5.50;3.50;;;;;;;;;;4986110;28;20470;-65
2023/08/14 05:47:56;;;;;;;7.65;4.15;;;;;;;;;;4987841;28;20051;-66
2023/08/14 05:50:22;;;;;;;7.18;3.80;;;;;;;;;;4969116;28;20038;-65
2023/08/14 05:52:48;;;;;;;4.95;3.25;;;;;;;;;;4988152;28;20045;-64
2023/08/14 05:55:15;;;;;;;5.65;3.60;;;;;;;;;;4987493;28;20493;-62
2023/08/14 05:57:41;;;;;;;6.15;3.88;;;;;;;;;;4985520;28;20073;-63
2023/08/14 06:00:11;;;;;;;8.88;4.22;;;;;;;;;;4980249;28;20294;-64
2023/08/14 06:02:37;;;;;;;5.70;3.42;;;;;;;;;;4986314;28;20505;-64
2023/08/14 06:05:04;;;;;;;5.10;3.13;;;;;;;;;;4986753;28;20110;-63
2023/08/14 06:07:30;;;;;;;5.65;3.85;;;;;;;;;;4987876;28;20504;-64
2023/08/14 06:09:56;;;;;;;5.32;3.67;;;;;;;;;;4982564;28;20493;-63
2023/08/14 06:12:22;;;;;;;10.20;4.07;;;;;;;;;;4983717;28;20101;-64
2023/08/14 06:14:48;;;;;;;6.35;3.65;;;;;;;;;;4969832;28;20045;-63
2023/08/14 06:17:14;;;;;;;6.57;3.90;;;;;;;;;;4988181;28;20590;-63
2023/08/14 06:19:43;;;;;;;11.00;3.97;;;;;;;;;;4987166;28;20040;-65
2023/08/14 06:22:11;;;;;;;6.22;2.85;;;;;;;;;;4987342;28;20056;-64
2023/08/14 06:24:37;;;;;;;6.22;3.92;;;;;;;;;;4987190;28;20341;-63
2023/08/14 06:27:03;;;;;;;8.32;3.63;;;;;;;;;;4996802;28;20046;-63
2023/08/14 06:29:31;;;;;;;5.45;3.38;;;;;;;;;;4956477;28;20045;-64
2023/08/14 06:31:57;;;;;;;6.35;3.65;;;;;;;;;;4979599;28;20041;-64
2023/08/14 06:34:24;;;;;;;5.53;3.50;;;;;;;;;;4990226;28;20057;-64
2023/08/14 06:36:50;;;;;;;4.05;3.08;;;;;;;;;;4986825;28;20046;-64
2023/08/14 06:39:16;;;;;;;5.38;3.92;;;;;;;;;;4987502;28;20069;-65
2023/08/14 06:41:42;;;;;;;10.52;4.00;;;;;;;;;;4986976;28;20042;-65
2023/08/14 06:44:09;;;;;;;6.03;4.10;;;;;;;;;;4970550;28;20087;-63
2023/08/14 06:46:35;;;;;;;5.25;3.35;;;;;;;;;;4986419;28;20445;-64
2023/08/14 06:49:01;;;;;;;6.32;3.85;;;;;;;;;;4986577;28;20042;-64
2023/08/14 06:51:27;;;;;;;5.38;3.53;;;;;;;;;;4986312;28;20062;-64
2023/08/14 06:53:53;;;;;;;5.57;3.92;;;;;;;;;;4984160;28;20458;-64
2023/08/14 06:56:20;;;;;;;8.77;4.45;;;;;;;;;;4986330;28;20042;-64
2023/08/14 06:58:46;;;;;;;7.00;3.42;;;;;;;;;;4984928;28;20039;-64
2023/08/14 07:01:12;;;;;;;6.05;4.68;;;;;;;;;;4985274;28;20517;-64
2023/08/14 07:03:38;;;;;;;6.22;4.25;;;;;;;;;;4987699;28;20042;-64
2023/08/14 07:06:04;;;;;;;5.75;3.15;;;;;;;;;;4986490;28;20109;-64
2023/08/14 07:08:30;;;;;;;9.38;4.35;;;;;;;;;;4989679;28;20038;-64
2023/08/14 07:10:56;;;;;;;5.57;3.17;;;;;;;;;;4994215;28;20038;-64
2023/08/14 07:13:23;;;;;;;8.07;3.85;;;;;;;;;;4987746;28;20038;-64
2023/08/14 07:15:49;;;;;;;8.85;4.32;;;;;;;;;;4985992;28;20265;-64
2023/08/14 07:18:17;;;;;;;8.90;3.35;;;;;;;;;;4985857;28;20419;-64
2023/08/14 07:20:44;;;;;;;6.25;3.05;;;;;;;;;;4987421;28;20034;-64
2023/08/14 07:23:10;;;;;;;5.18;3.17;;;;;;;;;;4987220;28;20071;-64
2023/08/14 07:25:36;;;;;;;5.40;4.00;;;;;;;;;;4986557;28;20107;-64
2023/08/14 07:28:03;;;;;;;7.93;2.55;;;;;;;;;;4987165;28;20042;-64
2023/08/14 07:30:29;;;;;;;5.55;3.20;;;;;;;;;;4966464;28;20042;-64
2023/08/14 07:32:56;;;;;;;5.43;3.15;;;;;;;;;;4987114;28;20034;-64
2023/08/14 07:35:22;;;;;;;8.60;3.25;;;;;;;;;;4985964;28;20187;-64
2023/08/14 07:37:48;;;;;;;4.18;2.60;;;;;;;;;;4989084;28;20310;-63
2023/08/14 07:40:14;;;;;;;4.47;2.72;;;;;;;;;;4989999;28;20794;-63
2023/08/14 07:42:40;;;;;;;5.05;3.58;;;;;;;;;;4992057;28;20038;-63
2023/08/14 07:45:08;;;;;;;5.03;2.60;;;;;;;;;;4990640;28;20592;-63
2023/08/14 07:47:34;;;;;;;3.58;2.42;;;;;;;;;;4991536;28;20038;-64
2023/08/14 07:50:00;;;;;;;6.93;2.70;;;;;;;;;;4990984;28;20659;-63
2023/08/14 07:52:27;;;;;;;3.50;2.83;;;;;;;;;;4978506;28;20044;-64
2023/08/14 07:54:54;;;;;;;6.80;2.70;;;;;;;;;;4990784;28;20038;-63
2023/08/14 07:57:20;;;;;;;4.75;2.35;;;;;;;;;;4990951;28;20531;-64
2023/08/14 07:59:46;;;;;;;6.70;2.88;;;;;;;;;;4991625;28;20049;-63
2023/08/14 08:02:13;;;;;;;4.80;2.40;;;;;;;;;;4990885;28;20042;-64
2023/08/14 08:04:39;;;;;;;4.18;2.25;;;;;;;;;;4988172;28;20108;-64
2023/08/14 08:07:05;;;;;;;3.92;2.45;;;;;;;;;;4986979;28;20046;-64
2023/08/14 08:09:32;;;;;;;3.63;1.85;;;;;;;;;;4991970;28;20097;-63
2023/08/14 08:11:58;;;;;;;3.95;2.38;;;;;;;;;;4968312;28;20058;-63
2023/08/14 08:14:25;;;;;;;4.35;2.00;;;;;;;;;;4994696;28;20141;-63
2023/08/14 08:16:51;;;;;;;4.60;2.47;;;17.60;99.90;;;;;;4979870;28;20054;-64
2023/08/14 08:19:17;;;;;;;6.07;2.70;;;;;;;;;;4996951;28;20049;-64
2023/08/14 08:21:43;;;;;;;6.00;2.28;;;;;;;;;;4995959;28;20525;-64
2023/08/14 08:24:09;;;;;;;3.78;2.30;;;;;;;;;;4994052;28;20034;-65
2023/08/14 08:26:36;;;;;;;3.25;1.70;;;;;;;;;;4983189;28;20524;-64
2023/08/14 08:29:02;;;;;;;2.17;1.58;;;;;;;;;;4992963;28;20042;-64
2023/08/14 08:31:28;;;;;;;4.95;1.92;;;;;;;;;;4968754;28;20625;-63
2023/08/14 08:33:54;;;;;;;3.50;2.17;;;;;;;;;;4989564;28;20046;-64
2023/08/14 08:36:21;;;;;;;3.53;2.00;;;;;;;;;;4992000;28;20140;-64
2023/08/14 08:38:47;;;;;;;3.08;1.77;;;;;;;;;;5002557;28;20609;-64
2023/08/14 08:41:14;;;;;;;3.08;1.75;;;;;;;;;;4988920;28;20042;-64
2023/08/14 08:43:41;;;;;;;2.35;1.55;;;;;;;;;;4989967;28;20046;-64
2023/08/14 08:46:12;;;;;;;9.55;2.35;;;;;;;;;;4987925;28;20129;-64
2023/08/14 08:48:42;;;;;;;3.05;1.52;;;;;;;;;;4995406;28;20324;-63
2023/08/14 08:51:09;;;;;;;2.58;1.52;;;;;;;;;;4988680;28;20561;-64
2023/08/14 08:53:36;;;;;;;3.28;1.95;;;;;;;;;;4989768;28;20073;-63
2023/08/14 08:56:02;;;;;;;3.40;1.70;;;;;;;;;;4987261;28;20126;-63
2023/08/14 08:58:28;;;;;;;3.70;2.00;;;;;;;;;;4974074;28;20060;-63
2023/08/14 09:00:55;;;;;;;5.43;2.28;;;;;;;;;;4987328;28;20155;-64
2023/08/14 09:03:21;;;;;;;3.30;1.60;;;;;;;;;;4989535;28;20464;-63
2023/08/14 09:05:48;;;;;;;3.72;1.58;;;;;;;;;;4979175;28;20049;-64
2023/08/14 09:08:14;;;;;;;2.42;1.70;;;;;;;;;;4986709;28;20042;-63
2023/08/14 09:10:40;;;;;;;2.30;1.45;;;;;;;;;;4988635;28;20035;-64
2023/08/14 09:13:07;;;;;;;2.38;1.23;;;;;;;;;;4988361;28;20039;-64
2023/08/14 09:15:33;;;;;;;3.53;1.42;;;;;;;;;;4987233;28;20030;-64
2023/08/14 09:17:59;;;;;;;3.20;2.13;;;;;;;;;;4990003;28;20049;-64
2023/08/14 09:20:25;;;;;;;4.93;1.77;;;;;;;;;;4989306;28;20141;-64
2023/08/14 09:22:56;;;;;;;3.75;1.90;;;;;;;;;;4989001;28;20057;-65
2023/08/14 09:25:22;;;;;;;2.20;1.10;;;;;;;;;;4987247;28;20474;-65
2023/08/14 09:27:48;;;;;;;2.58;1.48;;;19.20;99.90;;;;;;4986166;28;20129;-63
2023/08/14 09:30:14;;;;;;;8.32;2.25;;;20.50;99.90;;;;;;4985849;28;20464;-64
2023/08/14 09:32:40;;;;;;;4.55;1.85;;;20.50;99.90;;;;;;4997152;28;20057;-65
2023/08/14 09:35:06;;;;;;;3.03;1.40;;;20.70;99.90;;;;;;4997630;28;20565;-64
2023/08/14 09:37:32;;;;;;;2.63;1.50;;;20.70;99.90;;;;;;4995435;28;20053;-63
2023/08/14 09:40:24;;;;;;;4.75;1.83;;;20.80;99.90;;;;;;4989071;28;20049;-63
2023/08/14 09:42:50;;;;;;;2.90;1.58;;;20.90;99.90;;;;;;4995655;28;20541;-64
2023/08/14 09:45:19;;;;;;;4.50;1.63;;;21.00;99.90;;;;;;4998765;28;20050;-65
2023/08/14 09:47:46;;;;;;;3.65;2.08;;;21.10;99.90;;;;;;4994841;28;20052;-65
2023/08/14 09:50:13;;;;;;;2.58;1.33;;;21.20;99.90;;;;;;4953887;28;20038;-64
2023/08/14 09:52:39;;;;;;;3.67;1.75;;;21.20;99.90;;;;;;4994317;28;20038;-64
2023/08/14 09:55:06;;;;;;;4.97;1.92;;;21.30;99.90;;;;;;4994700;28;20064;-63
2023/08/14 09:57:33;;;;;;;2.40;1.65;;;21.30;99.90;;;;;;4972553;28;20762;-63
2023/08/14 09:59:59;;;;;;;2.35;1.25;;;21.40;99.90;;;;;;4989918;28;20367;-64
2023/08/14 10:02:26;;;;;;;3.72;1.20;;;21.40;99.90;;;;;;4978570;28;20073;-63
2023/08/14 10:04:53;;;;;;;4.95;2.22;;;21.50;99.90;;;;;;4970193;28;20597;-63
2023/08/14 10:07:23;;;;;;;2.78;1.58;;;21.50;99.90;;;;;;4987699;28;20050;-63
2023/08/14 10:09:55;;;;;;;3.05;1.60;;;21.60;99.90;;;;;;4987088;28;20057;-64
2023/08/14 10:12:29;;;;;;;3.28;1.73;;;21.70;99.90;;;;;;4987993;28;20033;-64
2023/08/14 10:15:05;;;;;;;3.67;1.52;;;21.70;99.90;;;;;;4992234;28;20039;-63
2023/08/14 10:17:51;;;;;;;3.22;1.30;;;21.70;99.90;;;;;;4988136;28;20042;-65
2023/08/14 10:20:19;;;;;;;2.55;1.20;;;21.80;99.90;;;;;;4987802;28;20034;-65
2023/08/14 10:22:47;;;;;;;3.03;1.30;;;21.90;99.90;;;;;;4976661;28;20380;-64
2023/08/14 10:25:14;;;;;;;2.38;1.42;;;21.90;99.90;;;;;;4982676;28;20038;-64
2023/08/14 10:27:40;;;;;;;2.75;1.55;;;22.00;99.90;;;;;;4974748;28;20050;-64
2023/08/14 10:30:07;;;;;;;3.25;1.40;;;22.10;99.90;;;;;;4985263;28;20042;-65
2023/08/14 10:32:34;;;;;;;4.22;1.58;;;22.10;99.90;;;;;;4980935;28;20719;-65
2023/08/14 10:35:00;;;;;;;2.83;1.33;;;22.10;99.90;;;;;;4995317;28;20042;-64
2023/08/14 10:37:42;;;;;;;4.13;1.90;;;22.20;99.80;;;;;;4987557;28;20041;-64
2023/08/14 10:40:14;;;;;;;1.65;1.20;;;22.30;99.70;;;;;;4989862;28;20109;-64
2023/08/14 10:42:40;;;;;;;;;;;;;;;;;;4976386;28;20114;-63
2023/08/14 10:45:06;;;;;;;4.22;1.73;;;22.30;99.70;;;;;;4995547;28;20693;-64
2023/08/14 10:47:32;;;;;;;4.03;1.92;;;22.40;99.80;;;;;;4993542;28;20097;-64
2023/08/14 10:49:58;;;;;;;4.07;1.40;;;22.40;99.70;;;;;;4994959;28;20078;-63
2023/08/14 10:52:25;;;;;;;2.45;1.58;;;22.50;99.60;;;;;;4987152;28;20026;-63
2023/08/14 10:54:51;;;;;;;7.40;1.70;;;22.60;99.50;;;;;;4972284;28;20061;-64
2023/08/14 10:57:26;;;;;;;2.95;1.48;;;22.60;99.30;;;;;;4991988;28;20423;-64
2023/08/14 10:59:57;;;;;;;2.58;1.45;;;22.70;99.20;;;;;;4975846;28;20038;-65
2023/08/14 11:02:25;;;;;;;2.65;1.38;;;22.80;99.10;;;;;;4993719;28;20042;-64
2023/08/14 11:05:01;;;;;;;2.90;1.52;;;22.90;99.10;;;;;;4980707;28;20098;-64
2023/08/14 11:07:29;;;;;;;4.53;1.80;;;23.00;98.90;;;;;;4986986;28;20078;-65
2023/08/14 11:09:59;;;;;;;2.67;1.52;;;23.10;98.90;;;;;;4995956;28;20042;-64
2023/08/14 11:12:26;;;;;;;1.90;1.20;;;23.20;98.70;;;;;;4992013;28;20038;-63
2023/08/14 11:14:56;;;;;;;3.90;1.75;;;23.30;98.70;;;;;;5004379;28;20077;-64
2023/08/14 11:17:24;;;;;;;2.72;1.30;;;23.40;98.60;;;;;;4987984;28;20050;-65
2023/08/14 11:19:50;;;;;;;2.15;1.40;;;23.50;98.50;;;;;;4983121;28;20590;-64
2023/08/14 11:22:16;;;;;;;4.03;1.35;;;23.60;98.40;;;;;;4990310;28;20506;-64
2023/08/14 11:24:43;;;;;;;3.72;1.60;;;23.70;98.20;;;;;;4991178;28;20044;-64
2023/08/14 11:27:09;;;;;;;2.70;1.42;;;;;;;;;;4972881;28;20041;-65
2023/08/14 11:29:36;;;;;;;3.55;1.27;;;;;;;;;;4972490;28;20494;-63
2023/08/14 11:32:02;;;;;;;1.92;1.10;;;23.80;98.10;;;;;;4991242;28;20057;-63
2023/08/14 11:34:32;;;;;;;3.67;1.50;;;24.20;97.80;;;;;;4991932;28;20129;-64
2023/08/14 11:37:03;;;;;;;3.38;1.58;;;24.20;97.70;;;;;;4990500;28;20081;-64
2023/08/14 11:39:30;;;;;;;3.67;1.88;;;;;;;;;;4995650;28;20069;-64
2023/08/14 11:41:56;;;;;;;3.65;1.45;;;;;;;;;;4989875;28;20065;-64
2023/08/14 11:44:23;;;;;;;3.50;1.58;;;;;;;;;;4992306;28;20048;-64
2023/08/14 11:46:49;;;;;;;3.35;1.17;;;24.20;97.50;;;;;;4989979;28;20038;-64
2023/08/14 11:49:16;;;;;;;2.78;1.40;;;24.60;97.10;;;;;;4990908;28;20129;-63
2023/08/14 11:51:42;;;;;;;3.88;1.52;;;24.70;96.90;;;;;;4989424;28;20495;-63
2023/08/14 11:54:09;;;;;;;3.90;1.95;;;24.70;96.70;;;;;;4971968;28;20082;-63
2023/08/14 11:56:37;;;;;;;4.15;1.40;;;24.90;96.50;;;;;;4987260;28;20101;-64
2023/08/14 11:59:06;;;;;;;3.20;1.52;;;25.00;96.30;;;;;;4988308;28;20042;-64
2023/08/14 12:01:37;;;;;;;1.90;1.27;;;25.10;96.30;;;;;;4993908;28;20049;-63
2023/08/14 12:04:04;;;;;;;3.00;1.45;;;25.20;96.20;;;;;;4989854;28;20564;-63
2023/08/14 12:06:30;;;;;;;3.13;1.17;;;25.30;96.10;;;;;;4989031;28;20061;-63
2023/08/14 12:08:56;;;;;;;9.38;1.55;;;;;;;;;;4990950;28;20046;-63
2023/08/14 12:11:23;;;;;;;4.28;1.38;;;;;;;;;;4989167;28;20408;-64
2023/08/14 12:13:52;;;;;;;2.65;1.50;;;;;;;;;;4990666;28;20602;-65
2023/08/14 12:16:23;;;;;;;4.57;1.42;;;25.30;95.90;;;;;;4988387;28;20538;-64
2023/08/14 12:18:49;;;;;;;2.88;1.20;;;25.80;95.50;;;;;;4989976;28;20096;-64
2023/08/14 12:21:15;;;;;;;4.10;1.85;;;25.80;95.30;;;;;;4982325;28;20050;-63
2023/08/14 12:23:52;;;;;;;1.60;1.17;;;25.90;95.10;;;;;;4995372;28;20050;-63
2023/08/14 12:26:18;;;;;;;2.35;1.30;;;26.00;94.80;;;;;;4999089;28;20053;-63
2023/08/14 12:28:44;;;;;;;2.05;1.33;;;26.00;94.80;;;;;;4989201;28;20045;-63
2023/08/14 12:31:11;;;;;;;3.50;1.75;;;26.10;94.70;;;;;;4981337;28;20034;-63
2023/08/14 12:33:40;;;;;;;3.65;1.50;;;26.20;94.50;;;;;;4992661;28;20501;-63
2023/08/14 12:36:10;;;;;;;2.63;1.30;;;26.30;94.40;;;;;;4989076;28;20037;-63
2023/08/14 12:38:37;;;;;;;3.45;1.45;;;26.30;94.30;;;;;;4987238;28;20100;-63
2023/08/14 12:41:03;;;;;;;5.13;1.52;;;26.40;94.20;;;;;;4989068;28;20066;-64
2023/08/14 12:43:29;;;;;;;3.65;1.52;;;26.50;94.20;;;;;;4989557;28;20058;-63
2023/08/14 12:45:55;;;;;;;2.58;1.33;;;26.60;94.10;;;;;;4975840;28;20542;-63
2023/08/14 12:48:21;;;;;;;3.28;1.60;;;26.60;93.90;;;;;;4989721;28;20711;-62
2023/08/14 12:50:47;;;;;;;2.97;1.70;;;26.70;93.90;;;;;;4969144;28;20039;-63
2023/08/14 12:53:16;;;;;;;2.53;1.27;;;26.80;93.90;;;;;;4972332;28;20133;-63
2023/08/14 12:55:45;;;;;;;5.07;1.50;;;26.90;93.70;;;;;;4988411;28;20526;-63
2023/08/14 12:58:11;;;;;;;3.60;1.40;;;26.90;93.70;;;;;;4971377;28;20046;-63
2023/08/14 13:00:37;;;;;;;1.67;1.15;;;27.00;93.70;;;;;;4988170;28;20077;-63
2023/08/14 13:03:04;;;;;;;4.35;1.55;;;27.00;93.70;;;;;;4989422;28;20169;-63
2023/08/14 13:05:30;;;;;;;4.80;1.80;;;27.00;93.60;;;;;;4988909;28;20046;-63
2023/08/14 13:07:55;;;;;;;4.18;1.67;;;27.00;93.50;;;;;;4987259;28;20073;-63
2023/08/14 13:10:21;;;;;;;2.90;1.35;;;27.00;93.30;;;;;;4989308;28;20034;-63
2023/08/14 13:12:47;;;;;;;5.95;2.40;;;27.00;93.20;;;;;;4989209;28;20121;-64
2023/08/14 13:15:13;;;;;;;3.30;1.60;;;27.00;93.10;;;;;;4988766;28;20443;-64
2023/08/14 13:17:39;;;;;;;3.30;1.65;;;27.10;93.00;;;;;;4989508;28;20352;-64
2023/08/14 13:20:05;;;;;;;3.78;1.73;;;27.10;92.90;;;;;;4981726;28;20105;-63
2023/08/14 13:22:31;;;;;;;4.82;1.67;;;27.20;93.00;;;;;;4989028;28;20042;-64
2023/08/14 13:24:57;;;;;;;3.90;1.75;;;27.20;93.00;;;;;;4988466;28;20050;-63
2023/08/14 13:27:23;;;;;;;4.80;2.00;;;27.30;93.10;;;;;;4990552;28;20092;-63
2023/08/14 13:29:48;;;;;;;4.32;1.92;;;27.30;93.00;;;;;;4954702;28;20042;-63
2023/08/14 13:32:14;;;;;;;3.08;1.80;;;27.40;93.10;;;;;;4989551;28;20056;-64
2023/08/14 13:34:40;;;;;;;2.78;1.70;;;27.40;93.10;;;;;;4983789;28;20050;-64
2023/08/14 13:37:06;;;;;;;3.83;1.90;;;27.40;93.10;;;;;;4990546;28;20044;-64
2023/08/14 13:39:32;;;;;;;4.35;2.47;;;27.40;93.00;;;;;;4988994;28;20042;-64
2023/08/14 13:41:58;;;;;;;4.15;1.70;;;27.50;93.00;;;;;;4999431;28;20048;-64
2023/08/14 13:44:24;;;;;;;3.95;2.10;;;27.50;92.80;;;;;;4988063;28;20038;-64
2023/08/14 13:46:49;;;;;;;5.57;2.05;;;27.50;93.00;;;;;;4987685;28;20101;-64
2023/08/14 13:49:15;;;;;;;3.72;1.98;;;27.60;93.00;;;;;;4983873;28;20039;-64
2023/08/14 13:51:43;;;;;;;3.75;2.22;;;27.60;93.00;;;;;;4983820;28;20042;-64
2023/08/14 13:54:09;;;;;;;4.18;1.73;;;27.70;93.00;;;;;;4987239;28;20042;-64
2023/08/14 13:56:35;;;;;;;3.58;2.08;;;27.70;92.80;;;;;;4986388;28;20045;-64
2023/08/14 13:59:00;;;;;;;2.70;1.80;;;27.80;92.90;;;;;;4988521;28;20038;-64